Página principal
METAR-TAF:

METAR-TAF

Aeroportos :

Koliganek, Alasca, Estados Unidos

latitude: 59-43-36N, longitude: 157-15-34W, altura: 82 m

Observação actual do tempo

O boletim foi feito há 5 minutos, às 19:56 UTC
Vento 5 kt de sudoeste
Temperatura 14°C
Humidade 77%
Pressão 1018 hPa
Visibilidade: 11.3 km
Céu limpo

METAR: PAJZ 171956Z AUTO 23005KT 7SM CLR 14/10 A3007 RMK AO2 SLP190 T01440100 $

Hora: 12:01 (20:01 UTC)


TAF: em falta

Observações e previsões do tempo de mais de 4000 aeroportos (mensagens METAR e TAF).

As estações disponíveis são os pontos amarelos e vermelhos sobre o mapa.

Mova o rato sobre o mapa para ver o nome da estação.

Depois clique no ponto para visualizar as observações e previsões meteorológicas.

Para alterar o mapa : clique nos botões verdes com uma cruz preta para aumentar o zoom; no botão verde com uma pitada de zoom; ou nas setas verdes para mapas adjacentes.


METAR-TAF: